Estación de Tranapuente INIA

Ultimos registro cada 15 minutos 63
Estación Fecha / Hora Temperatura Humedad Lluvia Velocidad Dirección Radiación Presion
63 Tranapuente INIA 05-05-2026 15:30 17,2 75,5 0 3,4 51 115 999
62 Tranapuente INIA 05-05-2026 15:15 17 76 0 4,4 65 126 999
61 Tranapuente INIA 05-05-2026 15:00 17 78,6 0 5,4 57 161 999
60 Tranapuente INIA 05-05-2026 14:45 17,1 76 0 3,5 48 136 999
59 Tranapuente INIA 05-05-2026 14:30 17 76,3 0 4,8 57 150 999
58 Tranapuente INIA 05-05-2026 14:15 16,6 77,1 0 5 69 131 999
57 Tranapuente INIA 05-05-2026 14:00 16,9 81,8 0 4,2 56 89 1000
56 Tranapuente INIA 05-05-2026 13:45 17,5 76,3 0 3,6 44 176 999
55 Tranapuente INIA 05-05-2026 13:30 17,2 74,5 0 4,5 48 164 1000
54 Tranapuente INIA 05-05-2026 13:15 17,1 73,5 0 3,1 32 102 1000
53 Tranapuente INIA 05-05-2026 13:00 17 77,7 0 2,5 22 85 1000
52 Tranapuente INIA 05-05-2026 12:45 15,7 79,6 0 0,3 294 105 1000
51 Tranapuente INIA 05-05-2026 12:30 15,4 85,2 0 0,1 200 197 1000
50 Tranapuente INIA 05-05-2026 12:15 15,1 87,2 0 0,4 190 196 1000
49 Tranapuente INIA 05-05-2026 12:00 15,2 90,2 0 0 301 114 1000
48 Tranapuente INIA 05-05-2026 11:45 15,2 87,6 0 0,5 263 103 1000
47 Tranapuente INIA 05-05-2026 11:30 15,3 87,6 0 0,6 272 103 1000
46 Tranapuente INIA 05-05-2026 11:15 15,3 88,9 0 0,1 136 126 1000
45 Tranapuente INIA 05-05-2026 11:00 14,8 90,8 0 0,3 177 176 1000
44 Tranapuente INIA 05-05-2026 10:45 14,4 87,4 0 0 0 99 1000
43 Tranapuente INIA 05-05-2026 10:30 13,9 88 0 1 142 125 1000
42 Tranapuente INIA 05-05-2026 10:15 13,6 91,5 0 0,2 170 70 1000
41 Tranapuente INIA 05-05-2026 10:00 13,7 90,6 0 1,7 171 52 1000
40 Tranapuente INIA 05-05-2026 09:45 13,5 90,4 0 0,6 104 111 1000
39 Tranapuente INIA 05-05-2026 09:30 13 92,9 0 1,3 115 62 1000
38 Tranapuente INIA 05-05-2026 09:15 12,8 93,8 0 0,4 150 32 1001
37 Tranapuente INIA 05-05-2026 09:00 12,7 94,9 0 0,6 144 42 1001
36 Tranapuente INIA 05-05-2026 08:45 12,5 95,7 0 0,9 166 30 1001
35 Tranapuente INIA 05-05-2026 08:30 12,5 94,9 0,2 0,3 174 19 1001
34 Tranapuente INIA 05-05-2026 08:15 12,5 94,8 0 0,4 80 13 1001
33 Tranapuente INIA 05-05-2026 08:00 12,5 94,8 0 1 136 3 1001
32 Tranapuente INIA 05-05-2026 07:45 12,5 94,3 0 0,8 130 0 1002
31 Tranapuente INIA 05-05-2026 07:30 12,5 95,1 0 1,7 145 0 1002
30 Tranapuente INIA 05-05-2026 07:15 12,4 94,5 0 0,5 137 0 1002
29 Tranapuente INIA 05-05-2026 07:00 12,4 95,6 0 0,8 118 0 1002
28 Tranapuente INIA 05-05-2026 06:45 12,5 94,3 0 2,2 162 0 1002
27 Tranapuente INIA 05-05-2026 06:30 12,4 92,6 0 1,2 167 0 1002
26 Tranapuente INIA 05-05-2026 06:15 12,4 93,5 0 0,2 174 0 1003
25 Tranapuente INIA 05-05-2026 06:00 12,7 91,8 0 0,1 60 0 1003
24 Tranapuente INIA 05-05-2026 05:45 12,6 89,7 0 0 58 0 1003
23 Tranapuente INIA 05-05-2026 05:30 13 90,3 0 0,3 222 0 1003
22 Tranapuente INIA 05-05-2026 05:15 12,5 84 0 0,4 45 0 1003
21 Tranapuente INIA 05-05-2026 05:00 11,9 95,1 0 0,5 67 0 1003
20 Tranapuente INIA 05-05-2026 04:45 11,4 98 0 0,1 166 0 1003
19 Tranapuente INIA 05-05-2026 04:30 11,4 98,4 0 0 94 0 1003
18 Tranapuente INIA 05-05-2026 04:15 11,3 98,7 0 0,1 93 0 1003
17 Tranapuente INIA 05-05-2026 04:00 11,3 98,7 0 0 174 0 1003
16 Tranapuente INIA 05-05-2026 03:45 11,4 98,3 0 0 0 0 1004
15 Tranapuente INIA 05-05-2026 03:30 11,6 97,6 0 0 0 0 1004
14 Tranapuente INIA 05-05-2026 03:15 11,8 96,2 0 0 0 0 1004
13 Tranapuente INIA 05-05-2026 03:00 11,7 96 0 0,1 116 0 1004
12 Tranapuente INIA 05-05-2026 02:45 11,5 98,3 0 0 0 0 1004
11 Tranapuente INIA 05-05-2026 02:30 11,5 97,9 0 0 0 0 1004
10 Tranapuente INIA 05-05-2026 02:15 11,5 97,9 0 0 0 0 1004
9 Tranapuente INIA 05-05-2026 02:00 11,6 97,1 0 0,1 55 0 1004
8 Tranapuente INIA 05-05-2026 01:45 11,6 97,9 0 0 0 0 1004
7 Tranapuente INIA 05-05-2026 01:30 11,4 99,4 0 0 151 0 1004
6 Tranapuente INIA 05-05-2026 01:15 11,4 99,6 0 0 163 0 1004
5 Tranapuente INIA 05-05-2026 01:00 11,4 99,6 0 0 0 0 1004
4 Tranapuente INIA 05-05-2026 00:45 11,4 99,7 0 0 116 0 1004
3 Tranapuente INIA 05-05-2026 00:30 11,4 99,8 0 0 0 0 1004
2 Tranapuente INIA 05-05-2026 00:15 11,4 99,9 0 0 0 0 1004
1 Tranapuente INIA 05-05-2026 00:00 11,6 99,8 0 0,2 160 0 1004